Latest Coastal Weather Observations for Dennes Point

IDT60701

Issued at 2:32 am EST Monday 29 August 2016 (issued every 10 minutes, with the page automatically refreshed every 10 minutes)

About coastal observations | Map of coastal stations | Coastal observations for TAS | Marine services | Other Formats
Station Details ID: 094255 Name: DENNES POINT Lat: -43.06 Lon: 147.36 Height: 5.67 m
Data from the previous 72 hours. | See also: Recent months at Dennes Point
Date/Time
EST
Temp
°C
Wind Pressure Rain since
9am
mm
Weather Cloud Vis
km
Sea
Height
m
Swell
Dir  Spd
kts
Gust
kts
hPa Trend Height
m
Period
s
Dir
29/02:30am 6.0 SW 3 5 1021.6 - 0.2 - - - - - - -
29/02:00am 6.2 W 6 8 1021.4 - 0.2 - - - - - - -
29/01:30am 6.9 W 8 10 1021.4 - 0.2 - - - - - - -
29/01:00am 7.2 WNW 7 8 1021.2 - 0.2 - - - - - - -
29/12:30am 7.7 NW 6 8 1021.1 - 0.2 - - - - - - -
29/12:00am 7.8 NW 7 8 1020.8 - 0.2 - - - - - - -
 
Date/Time
EST
Temp
°C
Wind Pressure Rain since
9am
mm
Weather Cloud Vis
km
Sea
Height
m
Swell
Dir  Spd
kts
Gust
kts
hPa Trend Height
m
Period
s
Dir
28/11:30pm 7.5 NW 7 9 1020.7 - 0.2 - - - - - - -
28/11:00pm 7.5 WNW 7 9 1020.5 - 0.2 - - - - - - -
28/10:30pm 7.4 WNW 7 10 1020.7 - 0.2 - - - - - - -
28/10:00pm 7.6 W 8 11 1020.5 - 0.2 - - - - - - -
28/09:30pm 6.5 W 5 7 1020.3 - 0.2 - - - - - - -
28/09:00pm 6.6 SW 2 3 1020.0 - 0.2 - - - - - - -
28/08:30pm 7.4 WSW 6 9 1019.7 - 0.2 - - - - - - -
28/08:00pm 7.5 W 7 9 1019.3 - 0.2 - - - - - - -
28/07:30pm 6.9 WSW 6 7 1019.0 - 0.2 - - - - - - -
28/07:00pm 8.3 WNW 6 8 1018.8 - 0.0 - - - - - - -
28/06:30pm 8.0 WNW 5 7 1018.4 - 0.0 - - - - - - -
28/06:00pm 8.1 W 7 8 1017.9 - 0.0 - - - - - - -
28/05:30pm 8.7 W 9 14 1017.6 - 0.0 - - - - - - -
28/05:00pm 9.5 W 15 19 1017.2 - 0.0 - - - - - - -
28/04:30pm 10.2 W 12 17 1017.0 - 0.0 - - - - - - -
28/04:00pm 10.3 WNW 11 16 1016.8 - 0.0 - - - - - - -
28/03:30pm 10.3 W 11 16 1016.3 - 0.0 - - - - - - -
28/03:00pm 10.9 W 11 14 1016.2 - 0.0 - - - - - - -
28/02:30pm 10.6 W 14 20 1016.2 - 0.0 - - - - - - -
28/02:00pm 9.8 W 15 18 1016.3 - 0.0 - - - - - - -
28/01:30pm 10.0 W 11 15 1016.5 - 0.0 - - - - - - -
28/01:00pm 9.9 NW 11 15 1016.6 - 0.0 - - - - - - -
28/12:30pm 9.2 W 15 20 1016.8 - 0.0 - - - - - - -
28/12:00pm 8.8 WSW 12 15 1016.9 - 0.0 - - - - - - -
28/11:30am 9.3 WSW 13 16 1016.8 - 0.0 - - - - - - -
28/11:00am 10.3 W 11 13 1016.6 - 0.0 - - - - - - -
28/10:30am 9.2 W 13 16 1016.5 - 0.0 - - - - - - -
28/10:00am 9.1 WSW 11 15 1016.2 - 0.0 - - - - - - -
28/09:30am 8.3 W 7 9 1016.0 - 0.0 - - - - - - -
28/09:00am 8.0 WSW 9 11 1015.7 - 0.6 - - - - - - -
28/08:30am 7.5 W 8 13 1015.6 - 0.6 - - - - - - -
28/08:00am 7.2 WNW 5 8 1015.2 - 0.6 - - - - - - -
28/07:30am 5.8 SSW 4 7 1015.0 - 0.6 - - - - - - -
28/07:00am 6.5 WSW 10 13 1014.2 - 0.4 - - - - - - -
28/06:30am 6.5 WSW 9 11 1013.5 - 0.4 - - - - - - -
28/06:00am 6.3 WSW 11 15 1012.8 - 0.4 - - - - - - -
28/05:30am 6.4 SW 12 17 1012.4 - 0.4 - - - - - - -
28/05:00am 6.2 WSW 11 14 1011.6 - 0.4 - - - - - - -
28/04:30am 6.0 SW 7 11 1011.1 - 0.4 - - - - - - -
28/04:00am 6.6 WSW 13 17 1010.8 - 0.4 - - - - - - -
28/03:30am 7.0 WSW 10 13 1010.2 - 0.2 - - - - - - -
28/03:00am 7.1 SW 13 19 1009.8 - 0.2 - - - - - - -
28/02:30am 7.0 SSW 12 20 1009.3 - 0.2 - - - - - - -
28/02:00am 7.3 SW 12 17 1008.7 - 0.2 - - - - - - -
28/01:30am 7.6 SW 16 24 1008.0 - 0.2 - - - - - - -
28/01:06am 7.8 SW 16 26 1007.5 - 0.2 - - - - - - -
28/01:00am 8.3 SW 18 27 1007.3 - 0.2 - - - - - - -
28/12:51am 9.2 SW 16 27 1006.8 - 0.2 - - - - - - -
28/12:30am 9.5 W 15 21 1005.9 - 0.2 - - - - - - -
28/12:00am 9.7 W 13 19 1005.1 - 0.0 - - - - - - -
 
Date/Time
EST
Temp
°C
Wind Pressure Rain since
9am
mm
Weather Cloud Vis
km
Sea
Height
m
Swell
Dir  Spd
kts
Gust
kts
hPa Trend Height
m
Period
s
Dir
27/11:30pm 10.6 W 13 18 1004.6 - 0.0 - - - - - - -
27/11:00pm 11.8 WNW 6 13 1004.0 - 0.0 - - - - - - -
27/10:30pm 12.0 NNW 4 7 1004.1 - 0.0 - - - - - - -
27/10:00pm 11.6 N 13 18 1004.2 - 0.0 - - - - - - -
27/09:30pm 11.6 N 13 17 1004.6 - 0.0 - - - - - - -
27/09:00pm 11.5 N 13 20 1005.2 - 0.0 - - - - - - -
27/08:30pm 11.3 N 14 18 1004.9 - 0.0 - - - - - - -
27/08:00pm 11.4 N 12 15 1005.7 - 0.0 - - - - - - -
27/07:30pm 11.6 N 10 16 1006.3 - 0.0 - - - - - - -
27/07:00pm 11.6 N 8 12 1006.7 - 0.0 - - - - - - -
27/06:30pm 11.8 N 11 16 1006.7 - 0.0 - - - - - - -
27/06:00pm 11.6 NNW 4 6 1007.3 - 0.0 - - - - - - -
27/05:30pm 12.0 NW 11 15 1007.6 - 0.0 - - - - - - -
27/05:00pm 13.0 NNW 12 17 1006.9 - 0.0 - - - - - - -
27/04:30pm 13.2 NNW 14 25 1007.1 - 0.0 - - - - - - -
27/04:00pm 13.3 NW 15 25 1007.5 - 0.0 - - - - - - -
27/03:56pm 13.3 NW 15 25 1007.5 - 0.0 - - - - - - -
27/03:30pm 13.4 WNW 11 16 1007.1 - 0.0 - - - - - - -
27/03:00pm 13.6 WNW 15 26 1007.3 - 0.0 - - - - - - -
27/02:53pm 13.8 WNW 15 26 1007.4 - 0.0 - - - - - - -
27/02:30pm 14.1 NW 11 17 1007.3 - 0.0 - - - - - - -
27/02:00pm 14.0 WNW 10 21 1007.3 - 0.0 - - - - - - -
27/01:41pm 14.2 WNW 15 26 1007.6 - 0.0 - - - - - - -
27/01:30pm 14.1 NW 10 14 1007.5 - 0.0 - - - - - - -
27/01:00pm 13.9 WNW 7 11 1007.8 - 0.0 - - - - - - -
27/12:30pm 13.3 NW 8 11 1008.4 - 0.0 - - - - - - -
27/12:00pm 13.3 WNW 11 17 1008.9 - 0.0 - - - - - - -
27/11:30am 13.0 WNW 10 21 1009.3 - 0.0 - - - - - - -
27/11:00am 12.9 WNW 13 18 1009.6 - 0.0 - - - - - - -
27/10:30am 13.3 WNW 14 21 1009.8 - 0.0 - - - - - - -
27/10:00am 13.3 WNW 12 16 1010.1 - 0.0 - - - - - - -
27/09:30am 13.0 NW 8 18 1010.4 - 0.0 - - - - - - -
27/09:00am 13.0 WNW 12 17 1010.3 - 0.0 - - - - - - -
27/08:30am 12.4 WNW 12 19 1010.5 - 0.0 - - - - - - -
27/08:00am 11.4 NNW 7 10 1010.8 - 0.0 - - - - - - -
27/07:30am 11.3 NW 5 11 1010.7 - 0.0 - - - - - - -
27/07:00am 11.1 NNW 7 9 1010.8 - 0.0 - - - - - - -
27/06:30am 10.9 NW 7 11 1010.8 - 0.0 - - - - - - -
27/06:00am 11.4 NW 6 17 1010.7 - 0.0 - - - - - - -
27/05:30am 10.3 N 5 9 1010.8 - 0.0 - - - - - - -
27/05:00am 11.3 WNW 9 18 1010.5 - 0.0 - - - - - - -
27/04:30am 10.9 WNW 7 12 1010.6 - 0.0 - - - - - - -
27/04:00am 11.0 NNW 8 10 1010.7 - 0.0 - - - - - - -
27/03:30am 10.8 NNW 5 7 1011.1 - 0.0 - - - - - - -
27/03:00am 10.8 NW 5 9 1011.6 - 0.0 - - - - - - -
27/02:30am 11.1 W 15 21 1011.8 - 0.0 - - - - - - -
27/02:00am 11.1 WNW 13 18 1011.3 - 0.0 - - - - - - -
27/01:30am 11.4 WNW 11 16 1011.3 - 0.0 - - - - - - -
27/01:00am 11.1 NNW 6 9 1011.2 - 0.0 - - - - - - -
27/12:30am 11.3 NW 4 10 1011.5 - 0.0 - - - - - - -
27/12:00am 11.3 NW 9 12 1011.5 - 0.0 - - - - - - -
 
Date/Time
EST
Temp
°C
Wind Pressure Rain since
9am
mm
Weather Cloud Vis
km
Sea
Height
m
Swell
Dir  Spd
kts
Gust
kts
hPa Trend Height
m
Period
s
Dir
26/11:30pm 11.1 NW 5 10 1012.0 - 0.0 - - - - - - -
26/11:00pm 11.5 WNW 12 18 1012.1 - 0.0 - - - - - - -
26/10:30pm 11.3 WNW 10 15 1012.3 - 0.0 - - - - - - -
26/10:00pm 11.2 W 11 16 1012.4 - 0.0 - - - - - - -
26/09:30pm 11.7 W 12 18 1012.3 - 0.0 - - - - - - -
26/09:00pm 11.1 WNW 10 16 1012.2 - 0.0 - - - - - - -
26/08:30pm 11.7 WNW 13 19 1012.0 - 0.0 - - - - - - -
26/08:00pm 11.8 WNW 15 20 1011.9 - 0.0 - - - - - - -
26/07:30pm 12.0 WNW 15 22 1011.9 - 0.0 - - - - - - -
26/07:00pm 12.1 WNW 12 21 1012.0 - 0.0 - - - - - - -
26/06:30pm 12.0 W 14 23 1012.0 - 0.0 - - - - - - -
26/06:00pm 12.3 W 13 19 1011.6 - 0.0 - - - - - - -
26/05:30pm 11.9 WNW 11 19 1011.4 - 0.0 - - - - - - -
26/05:00pm 12.7 W 13 22 1011.1 - 0.0 - - - - - - -
26/04:30pm 12.5 WSW 10 14 1011.5 - 0.0 - - - - - - -
26/04:00pm 13.0 WSW 10 13 1011.3 - 0.0 - - - - - - -
26/03:30pm 13.9 W 11 17 1011.0 - 0.0 - - - - - - -
26/03:00pm 13.8 W 13 20 1011.0 - 0.0 - - - - - - -
26/02:30pm 13.5 W 14 22 1011.0 - 0.0 - - - - - - -
26/02:00pm 13.7 W 17 23 1011.2 - 0.0 - - - - - - -
26/01:36pm 13.7 W 15 26 1011.2 - 0.0 - - - - - - -
26/01:30pm 14.0 W 12 17 1011.3 - 0.0 - - - - - - -
26/01:00pm 13.3 W 16 23 1011.6 - 0.0 - - - - - - -
26/12:46pm 13.5 W 15 25 1011.5 - 0.0 - - - - - - -
26/12:30pm 13.6 W 15 20 1011.6 - 0.0 - - - - - - -
26/12:00pm 12.9 W 19 25 1012.1 - 0.0 - - - - - - -
26/11:30am 13.1 WNW 8 15 1012.4 - 0.0 - - - - - - -
26/11:00am 12.2 W 7 12 1012.5 - 0.0 - - - - - - -
26/10:30am 12.2 WNW 8 13 1012.6 - 0.0 - - - - - - -
26/10:00am 11.5 W 9 12 1012.8 - 0.0 - - - - - - -
26/09:30am 11.2 W 5 8 1012.9 - 0.0 - - - - - - -
26/09:00am 9.2 N 1 3 1013.0 - 1.2 - - - - - - -
26/08:30am 8.9 N 4 6 1013.1 - 1.2 - - - - - - -
26/08:00am 8.1 NNW 5 8 1013.1 - 1.2 - - - - - - -
26/07:30am 8.1 NNW 7 10 1013.4 - 1.2 - - - - - - -
26/07:00am 7.8 N 3 5 1013.3 - 1.2 - - - - - - -
26/06:30am 7.5 NNW 3 5 1013.0 - 1.2 - - - - - - -
26/06:00am 7.2 NW 2 4 1013.0 - 1.2 - - - - - - -
26/05:30am 6.5 WNW 3 4 1012.9 - 1.2 - - - - - - -
26/05:00am 7.7 WNW 7 9 1012.7 - 1.2 - - - - - - -
26/04:30am 6.8 WNW 5 7 1012.5 - 1.2 - - - - - - -
26/04:00am 7.1 NW 2 4 1012.6 - 1.2 - - - - - - -
26/03:30am 7.2 WNW 4 6 1012.6 - 1.2 - - - - - - -
26/03:00am 7.8 NW 4 7 1012.5 - 1.2 - - - - - - -

Other Formats:

Comma delimited format used in spreadsheet applications
http://www.bom.gov.au/fwo/IDT60701/IDT60701.94988.axf

JavaScript Object Notation format (JSON) in row-major order
http://www.bom.gov.au/fwo/IDT60701/IDT60701.94988.json